sensor_id;sensor_type;location;lat;lon;timestamp;P1;durP1;ratioP1;P2;durP2;ratioP2
25249;SDS011;13201;51.148;13.738;2022-08-01T00:00:21;3.27;;;2.50;;
25249;SDS011;13201;51.148;13.738;2022-08-01T00:02:46;3.38;;;2.40;;
25249;SDS011;13201;51.148;13.738;2022-08-01T00:05:12;5.23;;;2.33;;
25249;SDS011;13201;51.148;13.738;2022-08-01T00:07:37;4.38;;;2.70;;
25249;SDS011;13201;51.148;13.738;2022-08-01T00:10:04;7.22;;;2.70;;
25249;SDS011;13201;51.148;13.738;2022-08-01T00:12:32;3.85;;;2.63;;
25249;SDS011;13201;51.148;13.738;2022-08-01T00:14:57;6.43;;;2.58;;
25249;SDS011;13201;51.148;13.738;2022-08-01T00:17:23;3.80;;;2.50;;
25249;SDS011;13201;51.148;13.738;2022-08-01T00:19:48;3.67;;;2.60;;
25249;SDS011;13201;51.148;13.738;2022-08-01T00:22:14;3.40;;;2.50;;
25249;SDS011;13201;51.148;13.738;2022-08-01T00:24:40;4.25;;;2.60;;
25249;SDS011;13201;51.148;13.738;2022-08-01T00:27:05;3.72;;;2.60;;
25249;SDS011;13201;51.148;13.738;2022-08-01T00:29:31;4.97;;;2.67;;
25249;SDS011;13201;51.148;13.738;2022-08-01T00:31:57;2.85;;;2.58;;
25249;SDS011;13201;51.148;13.738;2022-08-01T00:34:22;3.53;;;2.72;;
25249;SDS011;13201;51.148;13.738;2022-08-01T00:36:48;6.13;;;2.78;;
25249;SDS011;13201;51.148;13.738;2022-08-01T00:39:13;4.05;;;2.47;;
25249;SDS011;13201;51.148;13.738;2022-08-01T00:41:39;2.97;;;2.67;;
25249;SDS011;13201;51.148;13.738;2022-08-01T00:44:05;4.95;;;2.60;;
25249;SDS011;13201;51.148;13.738;2022-08-01T00:46:31;3.07;;;2.67;;
25249;SDS011;13201;51.148;13.738;2022-08-01T00:48:58;2.78;;;2.50;;
25249;SDS011;13201;51.148;13.738;2022-08-01T00:51:24;3.10;;;2.43;;
25249;SDS011;13201;51.148;13.738;2022-08-01T00:53:51;5.78;;;2.60;;
25249;SDS011;13201;51.148;13.738;2022-08-01T00:56:17;2.80;;;2.45;;
25249;SDS011;13201;51.148;13.738;2022-08-01T00:58:43;4.28;;;2.67;;
25249;SDS011;13201;51.148;13.738;2022-08-01T01:01:09;7.95;;;2.53;;
25249;SDS011;13201;51.148;13.738;2022-08-01T01:03:35;3.65;;;2.75;;
25249;SDS011;13201;51.148;13.738;2022-08-01T01:32:31;3.00;;;2.63;;
25249;SDS011;13201;51.148;13.738;2022-08-01T01:35:05;4.95;;;2.67;;
25249;SDS011;13201;51.148;13.738;2022-08-01T01:37:34;3.47;;;2.58;;
25249;SDS011;13201;51.148;13.738;2022-08-01T01:40:03;6.38;;;2.63;;
25249;SDS011;13201;51.148;13.738;2022-08-01T01:42:30;4.32;;;2.85;;
25249;SDS011;13201;51.148;13.738;2022-08-01T01:44:58;4.80;;;3.03;;
25249;SDS011;13201;51.148;13.738;2022-08-01T01:47:25;4.05;;;2.40;;
25249;SDS011;13201;51.148;13.738;2022-08-01T01:49:52;2.53;;;2.30;;
25249;SDS011;13201;51.148;13.738;2022-08-01T01:52:20;4.22;;;2.70;;
25249;SDS011;13201;51.148;13.738;2022-08-01T01:54:49;4.15;;;2.17;;
25249;SDS011;13201;51.148;13.738;2022-08-01T01:57:16;4.03;;;2.63;;
25249;SDS011;13201;51.148;13.738;2022-08-01T02:02:10;7.72;;;2.55;;
25249;SDS011;13201;51.148;13.738;2022-08-01T02:07:05;3.25;;;2.42;;
25249;SDS011;13201;51.148;13.738;2022-08-01T02:09:33;4.32;;;2.58;;
25249;SDS011;13201;51.148;13.738;2022-08-01T02:12:02;5.90;;;2.60;;
25249;SDS011;13201;51.148;13.738;2022-08-01T02:16:55;3.60;;;2.58;;
25249;SDS011;13201;51.148;13.738;2022-08-01T02:19:23;5.75;;;3.08;;
25249;SDS011;13201;51.148;13.738;2022-08-01T02:21:51;3.53;;;2.80;;
25249;SDS011;13201;51.148;13.738;2022-08-01T02:24:39;2.97;;;2.63;;
25249;SDS011;13201;51.148;13.738;2022-08-01T02:27:17;3.53;;;2.60;;
25249;SDS011;13201;51.148;13.738;2022-08-01T02:29:51;3.53;;;2.70;;
25249;SDS011;13201;51.148;13.738;2022-08-01T02:32:24;3.90;;;2.90;;
25249;SDS011;13201;51.148;13.738;2022-08-01T02:34:55;3.45;;;2.80;;
25249;SDS011;13201;51.148;13.738;2022-08-01T02:37:25;3.05;;;2.47;;
25249;SDS011;13201;51.148;13.738;2022-08-01T02:39:54;4.28;;;2.67;;
25249;SDS011;13201;51.148;13.738;2022-08-01T02:42:20;3.55;;;2.47;;
25249;SDS011;13201;51.148;13.738;2022-08-01T02:44:49;4.00;;;2.60;;
25249;SDS011;13201;51.148;13.738;2022-08-01T02:47:16;4.97;;;2.60;;
25249;SDS011;13201;51.148;13.738;2022-08-01T02:49:46;3.80;;;2.70;;
25249;SDS011;13201;51.148;13.738;2022-08-01T02:52:13;4.10;;;2.58;;
25249;SDS011;13201;51.148;13.738;2022-08-01T02:54:41;7.60;;;2.72;;
25249;SDS011;13201;51.148;13.738;2022-08-01T02:57:11;6.70;;;3.15;;
25249;SDS011;13201;51.148;13.738;2022-08-01T02:59:39;3.85;;;3.00;;
25249;SDS011;13201;51.148;13.738;2022-08-01T03:02:07;4.68;;;2.83;;
25249;SDS011;13201;51.148;13.738;2022-08-01T03:04:35;6.18;;;3.13;;
25249;SDS011;13201;51.148;13.738;2022-08-01T03:07:03;4.35;;;2.88;;
25249;SDS011;13201;51.148;13.738;2022-08-01T03:09:30;3.50;;;2.95;;
25249;SDS011;13201;51.148;13.738;2022-08-01T03:12:00;4.60;;;2.70;;
25249;SDS011;13201;51.148;13.738;2022-08-01T03:14:28;4.18;;;2.70;;
25249;SDS011;13201;51.148;13.738;2022-08-01T03:16:55;6.00;;;2.80;;
25249;SDS011;13201;51.148;13.738;2022-08-01T03:19:23;2.92;;;2.55;;
25249;SDS011;13201;51.148;13.738;2022-08-01T03:21:51;3.78;;;2.70;;
25249;SDS011;13201;51.148;13.738;2022-08-01T03:24:17;5.55;;;3.10;;
25249;SDS011;13201;51.148;13.738;2022-08-01T03:26:44;5.57;;;2.95;;
25249;SDS011;13201;51.148;13.738;2022-08-01T03:29:12;4.53;;;2.97;;
25249;SDS011;13201;51.148;13.738;2022-08-01T03:31:41;5.93;;;3.15;;
25249;SDS011;13201;51.148;13.738;2022-08-01T03:34:09;3.60;;;2.97;;
25249;SDS011;13201;51.148;13.738;2022-08-01T03:36:38;6.18;;;2.55;;
25249;SDS011;13201;51.148;13.738;2022-08-01T03:39:12;3.10;;;2.78;;
25249;SDS011;13201;51.148;13.738;2022-08-01T03:41:39;6.72;;;3.53;;
25249;SDS011;13201;51.148;13.738;2022-08-01T03:44:10;4.78;;;3.10;;
25249;SDS011;13201;51.148;13.738;2022-08-01T03:46:41;5.45;;;2.83;;
25249;SDS011;13201;51.148;13.738;2022-08-01T03:49:25;6.53;;;3.22;;
25249;SDS011;13201;51.148;13.738;2022-08-01T03:51:55;3.38;;;3.08;;
25249;SDS011;13201;51.148;13.738;2022-08-01T03:54:23;3.55;;;2.85;;
25249;SDS011;13201;51.148;13.738;2022-08-01T03:56:50;3.97;;;2.88;;
25249;SDS011;13201;51.148;13.738;2022-08-01T03:59:17;4.15;;;2.65;;
25249;SDS011;13201;51.148;13.738;2022-08-01T04:01:44;3.50;;;2.78;;
25249;SDS011;13201;51.148;13.738;2022-08-01T04:04:11;5.30;;;2.90;;
25249;SDS011;13201;51.148;13.738;2022-08-01T04:06:38;4.45;;;2.70;;
25249;SDS011;13201;51.148;13.738;2022-08-01T04:09:04;4.63;;;2.63;;
25249;SDS011;13201;51.148;13.738;2022-08-01T04:11:32;4.88;;;2.70;;
25249;SDS011;13201;51.148;13.738;2022-08-01T04:13:58;6.28;;;3.03;;
25249;SDS011;13201;51.148;13.738;2022-08-01T04:16:23;14.57;;;3.75;;
25249;SDS011;13201;51.148;13.738;2022-08-01T04:18:49;4.68;;;2.67;;
25249;SDS011;13201;51.148;13.738;2022-08-01T04:21:17;3.17;;;2.50;;
25249;SDS011;13201;51.148;13.738;2022-08-01T04:23:45;4.95;;;2.70;;
25249;SDS011;13201;51.148;13.738;2022-08-01T04:26:12;4.28;;;2.67;;
25249;SDS011;13201;51.148;13.738;2022-08-01T04:28:40;4.05;;;2.95;;
25249;SDS011;13201;51.148;13.738;2022-08-01T04:31:09;4.25;;;2.67;;
25249;SDS011;13201;51.148;13.738;2022-08-01T04:33:38;6.65;;;3.40;;
25249;SDS011;13201;51.148;13.738;2022-08-01T04:36:10;4.35;;;2.92;;
25249;SDS011;13201;51.148;13.738;2022-08-01T04:38:38;4.93;;;3.00;;
25249;SDS011;13201;51.148;13.738;2022-08-01T04:41:04;5.57;;;2.92;;
25249;SDS011;13201;51.148;13.738;2022-08-01T04:43:33;4.35;;;3.17;;
25249;SDS011;13201;51.148;13.738;2022-08-01T04:45:59;4.37;;;3.23;;
25249;SDS011;13201;51.148;13.738;2022-08-01T04:48:28;4.05;;;3.40;;
25249;SDS011;13201;51.148;13.738;2022-08-01T04:50:54;3.90;;;3.10;;
25249;SDS011;13201;51.148;13.738;2022-08-01T04:53:20;4.30;;;3.45;;
25249;SDS011;13201;51.148;13.738;2022-08-01T04:55:50;4.05;;;3.28;;
25249;SDS011;13201;51.148;13.738;2022-08-01T04:58:16;6.97;;;2.97;;
25249;SDS011;13201;51.148;13.738;2022-08-01T05:00:42;3.85;;;3.00;;
25249;SDS011;13201;51.148;13.738;2022-08-01T05:03:08;7.85;;;2.83;;
25249;SDS011;13201;51.148;13.738;2022-08-01T05:05:34;5.82;;;3.17;;
25249;SDS011;13201;51.148;13.738;2022-08-01T05:08:00;4.78;;;2.90;;
25249;SDS011;13201;51.148;13.738;2022-08-01T05:10:26;4.20;;;2.90;;
25249;SDS011;13201;51.148;13.738;2022-08-01T05:12:51;4.30;;;3.10;;
25249;SDS011;13201;51.148;13.738;2022-08-01T05:15:17;9.93;;;3.25;;
25249;SDS011;13201;51.148;13.738;2022-08-01T05:17:43;3.42;;;3.10;;
25249;SDS011;13201;51.148;13.738;2022-08-01T05:20:09;5.20;;;3.00;;
25249;SDS011;13201;51.148;13.738;2022-08-01T05:22:36;3.60;;;2.60;;
25249;SDS011;13201;51.148;13.738;2022-08-01T05:25:02;6.15;;;2.97;;
25249;SDS011;13201;51.148;13.738;2022-08-01T05:27:29;3.22;;;2.80;;
25249;SDS011;13201;51.148;13.738;2022-08-01T05:29:55;4.43;;;2.87;;
25249;SDS011;13201;51.148;13.738;2022-08-01T05:32:21;3.53;;;2.92;;
25249;SDS011;13201;51.148;13.738;2022-08-01T05:34:47;4.78;;;3.00;;
25249;SDS011;13201;51.148;13.738;2022-08-01T05:37:13;10.63;;;3.22;;
25249;SDS011;13201;51.148;13.738;2022-08-01T05:39:38;4.10;;;3.03;;
25249;SDS011;13201;51.148;13.738;2022-08-01T05:42:04;4.63;;;3.00;;
25249;SDS011;13201;51.148;13.738;2022-08-01T05:44:30;5.22;;;3.20;;
25249;SDS011;13201;51.148;13.738;2022-08-01T05:46:55;7.30;;;3.30;;
25249;SDS011;13201;51.148;13.738;2022-08-01T05:49:21;3.65;;;3.05;;
25249;SDS011;13201;51.148;13.738;2022-08-01T05:51:47;4.07;;;2.75;;
25249;SDS011;13201;51.148;13.738;2022-08-01T05:54:12;4.85;;;3.40;;
25249;SDS011;13201;51.148;13.738;2022-08-01T05:56:38;3.78;;;2.88;;
25249;SDS011;13201;51.148;13.738;2022-08-01T05:59:04;3.78;;;3.00;;
25249;SDS011;13201;51.148;13.738;2022-08-01T06:01:29;5.93;;;3.13;;
25249;SDS011;13201;51.148;13.738;2022-08-01T06:03:55;3.90;;;3.00;;
25249;SDS011;13201;51.148;13.738;2022-08-01T06:06:21;3.88;;;3.20;;
25249;SDS011;13201;51.148;13.738;2022-08-01T06:08:47;4.50;;;2.77;;
25249;SDS011;13201;51.148;13.738;2022-08-01T06:11:13;4.30;;;2.83;;
25249;SDS011;13201;51.148;13.738;2022-08-01T06:13:39;4.38;;;3.25;;
25249;SDS011;13201;51.148;13.738;2022-08-01T06:16:04;3.50;;;2.50;;
25249;SDS011;13201;51.148;13.738;2022-08-01T06:18:30;4.15;;;3.10;;
25249;SDS011;13201;51.148;13.738;2022-08-01T06:20:56;3.47;;;2.97;;
25249;SDS011;13201;51.148;13.738;2022-08-01T06:23:22;3.88;;;2.83;;
25249;SDS011;13201;51.148;13.738;2022-08-01T06:25:48;3.00;;;2.60;;
25249;SDS011;13201;51.148;13.738;2022-08-01T06:28:16;3.67;;;2.70;;
25249;SDS011;13201;51.148;13.738;2022-08-01T06:30:42;4.38;;;2.63;;
25249;SDS011;13201;51.148;13.738;2022-08-01T06:33:08;5.13;;;2.90;;
25249;SDS011;13201;51.148;13.738;2022-08-01T06:35:34;4.88;;;3.00;;
25249;SDS011;13201;51.148;13.738;2022-08-01T06:37:59;3.50;;;3.00;;
25249;SDS011;13201;51.148;13.738;2022-08-01T06:40:25;3.05;;;2.58;;
25249;SDS011;13201;51.148;13.738;2022-08-01T06:42:51;2.92;;;2.63;;
25249;SDS011;13201;51.148;13.738;2022-08-01T06:45:17;4.00;;;2.92;;
25249;SDS011;13201;51.148;13.738;2022-08-01T06:47:43;3.33;;;3.03;;
25249;SDS011;13201;51.148;13.738;2022-08-01T06:52:36;3.22;;;2.75;;
25249;SDS011;13201;51.148;13.738;2022-08-01T06:55:02;3.83;;;2.80;;
25249;SDS011;13201;51.148;13.738;2022-08-01T06:57:29;5.15;;;3.20;;
25249;SDS011;13201;51.148;13.738;2022-08-01T06:59:55;3.75;;;2.80;;
25249;SDS011;13201;51.148;13.738;2022-08-01T07:02:21;4.85;;;2.95;;
25249;SDS011;13201;51.148;13.738;2022-08-01T07:04:47;4.20;;;3.22;;
25249;SDS011;13201;51.148;13.738;2022-08-01T07:07:13;3.08;;;2.60;;
25249;SDS011;13201;51.148;13.738;2022-08-01T07:09:39;4.60;;;3.20;;
25249;SDS011;13201;51.148;13.738;2022-08-01T07:12:07;4.18;;;3.10;;
25249;SDS011;13201;51.148;13.738;2022-08-01T07:14:33;3.80;;;3.15;;
25249;SDS011;13201;51.148;13.738;2022-08-01T07:16:59;4.70;;;3.20;;
25249;SDS011;13201;51.148;13.738;2022-08-01T07:19:25;4.40;;;3.30;;
25249;SDS011;13201;51.148;13.738;2022-08-01T07:21:50;5.65;;;3.35;;
25249;SDS011;13201;51.148;13.738;2022-08-01T07:24:16;4.35;;;3.28;;
25249;SDS011;13201;51.148;13.738;2022-08-01T07:26:42;3.42;;;2.83;;
25249;SDS011;13201;51.148;13.738;2022-08-01T07:29:09;3.63;;;3.00;;
25249;SDS011;13201;51.148;13.738;2022-08-01T07:31:35;3.13;;;2.80;;
25249;SDS011;13201;51.148;13.738;2022-08-01T07:34:00;3.20;;;2.90;;
25249;SDS011;13201;51.148;13.738;2022-08-01T07:36:26;4.40;;;2.80;;
25249;SDS011;13201;51.148;13.738;2022-08-01T07:38:52;4.65;;;2.90;;
25249;SDS011;13201;51.148;13.738;2022-08-01T07:41:17;4.53;;;3.00;;
25249;SDS011;13201;51.148;13.738;2022-08-01T07:43:43;4.50;;;3.20;;
25249;SDS011;13201;51.148;13.738;2022-08-01T07:46:09;4.20;;;3.17;;
25249;SDS011;13201;51.148;13.738;2022-08-01T07:48:34;5.95;;;2.92;;
25249;SDS011;13201;51.148;13.738;2022-08-01T07:51:00;3.67;;;2.90;;
25249;SDS011;13201;51.148;13.738;2022-08-01T07:53:26;3.60;;;3.30;;
25249;SDS011;13201;51.148;13.738;2022-08-01T07:55:52;5.32;;;3.30;;
25249;SDS011;13201;51.148;13.738;2022-08-01T07:58:18;3.35;;;3.05;;
25249;SDS011;13201;51.148;13.738;2022-08-01T08:00:44;4.15;;;3.30;;
25249;SDS011;13201;51.148;13.738;2022-08-01T08:03:09;3.92;;;3.30;;
25249;SDS011;13201;51.148;13.738;2022-08-01T08:05:35;3.95;;;3.35;;
25249;SDS011;13201;51.148;13.738;2022-08-01T08:08:01;3.65;;;3.30;;
25249;SDS011;13201;51.148;13.738;2022-08-01T08:10:31;4.85;;;3.30;;
25249;SDS011;13201;51.148;13.738;2022-08-01T08:12:57;3.37;;;3.07;;
25249;SDS011;13201;51.148;13.738;2022-08-01T08:15:22;3.22;;;2.92;;
25249;SDS011;13201;51.148;13.738;2022-08-01T08:17:48;3.35;;;2.60;;
25249;SDS011;13201;51.148;13.738;2022-08-01T08:20:14;3.45;;;2.53;;
25249;SDS011;13201;51.148;13.738;2022-08-01T08:22:39;2.95;;;2.30;;
25249;SDS011;13201;51.148;13.738;2022-08-01T08:25:05;4.82;;;2.45;;
25249;SDS011;13201;51.148;13.738;2022-08-01T08:27:32;4.57;;;2.72;;
25249;SDS011;13201;51.148;13.738;2022-08-01T08:29:58;2.97;;;2.55;;
25249;SDS011;13201;51.148;13.738;2022-08-01T08:32:24;2.60;;;2.28;;
25249;SDS011;13201;51.148;13.738;2022-08-01T08:34:49;3.92;;;2.60;;
25249;SDS011;13201;51.148;13.738;2022-08-01T08:37:15;7.20;;;2.33;;
25249;SDS011;13201;51.148;13.738;2022-08-01T08:39:42;2.30;;;2.10;;
25249;SDS011;13201;51.148;13.738;2022-08-01T08:42:08;2.92;;;2.25;;
25249;SDS011;13201;51.148;13.738;2022-08-01T08:44:35;2.67;;;2.10;;
25249;SDS011;13201;51.148;13.738;2022-08-01T08:47:01;2.50;;;2.03;;
25249;SDS011;13201;51.148;13.738;2022-08-01T08:49:30;3.33;;;2.00;;
25249;SDS011;13201;51.148;13.738;2022-08-01T08:51:58;4.03;;;2.10;;
25249;SDS011;13201;51.148;13.738;2022-08-01T08:54:25;2.70;;;2.10;;
25249;SDS011;13201;51.148;13.738;2022-08-01T08:56:52;2.40;;;1.90;;
25249;SDS011;13201;51.148;13.738;2022-08-01T08:59:19;2.05;;;1.67;;
25249;SDS011;13201;51.148;13.738;2022-08-01T09:01:45;2.38;;;1.50;;
25249;SDS011;13201;51.148;13.738;2022-08-01T09:04:12;2.83;;;1.73;;
25249;SDS011;13201;51.148;13.738;2022-08-01T09:06:38;1.83;;;1.70;;
25249;SDS011;13201;51.148;13.738;2022-08-01T09:09:04;2.35;;;1.60;;
25249;SDS011;13201;51.148;13.738;2022-08-01T09:11:31;2.53;;;1.90;;
25249;SDS011;13201;51.148;13.738;2022-08-01T09:16:36;1.98;;;1.55;;
25249;SDS011;13201;51.148;13.738;2022-08-01T09:19:13;1.90;;;1.70;;
25249;SDS011;13201;51.148;13.738;2022-08-01T09:21:59;3.78;;;2.00;;
25249;SDS011;13201;51.148;13.738;2022-08-01T09:24:28;3.72;;;1.70;;
25249;SDS011;13201;51.148;13.738;2022-08-01T09:29:22;2.00;;;1.80;;
25249;SDS011;13201;51.148;13.738;2022-08-01T09:31:50;2.20;;;2.00;;
25249;SDS011;13201;51.148;13.738;2022-08-01T09:34:23;2.65;;;1.90;;
25249;SDS011;13201;51.148;13.738;2022-08-01T09:36:54;2.28;;;1.92;;
25249;SDS011;13201;51.148;13.738;2022-08-01T09:39:25;2.60;;;2.20;;
25249;SDS011;13201;51.148;13.738;2022-08-01T09:41:53;3.83;;;2.40;;
25249;SDS011;13201;51.148;13.738;2022-08-01T09:44:19;3.55;;;2.10;;
25249;SDS011;13201;51.148;13.738;2022-08-01T09:47:05;10.77;;;2.00;;
25249;SDS011;13201;51.148;13.738;2022-08-01T09:49:32;2.40;;;1.90;;
25249;SDS011;13201;51.148;13.738;2022-08-01T09:52:00;2.88;;;1.63;;
25249;SDS011;13201;51.148;13.738;2022-08-01T09:54:59;2.10;;;1.90;;
25249;SDS011;13201;51.148;13.738;2022-08-01T09:57:27;1.90;;;1.80;;
25249;SDS011;13201;51.148;13.738;2022-08-01T09:59:55;2.97;;;1.90;;
25249;SDS011;13201;51.148;13.738;2022-08-01T10:04:57;1.90;;;1.70;;
25249;SDS011;13201;51.148;13.738;2022-08-01T10:07:23;2.05;;;1.80;;
25249;SDS011;13201;51.148;13.738;2022-08-01T10:09:49;1.98;;;1.65;;
25249;SDS011;13201;51.148;13.738;2022-08-01T10:12:16;1.98;;;1.80;;
25249;SDS011;13201;51.148;13.738;2022-08-01T10:14:44;2.20;;;1.80;;
25249;SDS011;13201;51.148;13.738;2022-08-01T10:17:13;6.22;;;2.17;;
25249;SDS011;13201;51.148;13.738;2022-08-01T10:19:41;1.40;;;1.30;;
25249;SDS011;13201;51.148;13.738;2022-08-01T10:22:08;1.60;;;1.40;;
25249;SDS011;13201;51.148;13.738;2022-08-01T10:24:39;1.20;;;1.10;;
25249;SDS011;13201;51.148;13.738;2022-08-01T10:27:06;2.70;;;1.20;;
25249;SDS011;13201;51.148;13.738;2022-08-01T10:29:55;6.70;;;1.38;;
25249;SDS011;13201;51.148;13.738;2022-08-01T10:32:19;2.92;;;1.40;;
25249;SDS011;13201;51.148;13.738;2022-08-01T10:34:45;1.70;;;1.20;;
25249;SDS011;13201;51.148;13.738;2022-08-01T10:37:11;1.20;;;1.10;;
25249;SDS011;13201;51.148;13.738;2022-08-01T10:39:38;1.38;;;0.98;;
25249;SDS011;13201;51.148;13.738;2022-08-01T10:42:04;1.00;;;1.00;;
25249;SDS011;13201;51.148;13.738;2022-08-01T10:44:34;1.35;;;0.95;;
25249;SDS011;13201;51.148;13.738;2022-08-01T10:47:09;1.10;;;0.80;;
25249;SDS011;13201;51.148;13.738;2022-08-01T10:49:56;1.13;;;1.00;;
25249;SDS011;13201;51.148;13.738;2022-08-01T10:52:27;1.05;;;0.88;;
25249;SDS011;13201;51.148;13.738;2022-08-01T10:55:06;0.70;;;0.70;;
25249;SDS011;13201;51.148;13.738;2022-08-01T10:57:47;0.95;;;0.68;;
25249;SDS011;13201;51.148;13.738;2022-08-01T11:00:19;0.77;;;0.60;;
25249;SDS011;13201;51.148;13.738;2022-08-01T11:02:59;1.20;;;0.75;;
25249;SDS011;13201;51.148;13.738;2022-08-01T11:05:26;2.15;;;0.80;;
25249;SDS011;13201;51.148;13.738;2022-08-01T11:07:55;3.50;;;0.68;;
25249;SDS011;13201;51.148;13.738;2022-08-01T11:13:05;1.05;;;0.68;;
25249;SDS011;13201;51.148;13.738;2022-08-01T11:15:36;4.03;;;0.40;;
25249;SDS011;13201;51.148;13.738;2022-08-01T11:20:58;0.95;;;0.60;;
25249;SDS011;13201;51.148;13.738;2022-08-01T11:23:25;1.75;;;0.70;;
25249;SDS011;13201;51.148;13.738;2022-08-01T11:28:27;1.92;;;0.80;;
25249;SDS011;13201;51.148;13.738;2022-08-01T11:38:36;2.13;;;1.20;;
25249;SDS011;13201;51.148;13.738;2022-08-01T11:41:13;1.08;;;0.68;;
25249;SDS011;13201;51.148;13.738;2022-08-01T11:43:56;1.40;;;0.75;;
25249;SDS011;13201;51.148;13.738;2022-08-01T11:54:48;10.70;;;1.02;;
25249;SDS011;13201;51.148;13.738;2022-08-01T11:57:31;0.95;;;0.60;;
25249;SDS011;13201;51.148;13.738;2022-08-01T12:00:13;2.47;;;0.68;;
25249;SDS011;13201;51.148;13.738;2022-08-01T12:02:41;1.40;;;0.70;;
25249;SDS011;13201;51.148;13.738;2022-08-01T12:05:08;1.37;;;0.70;;
25249;SDS011;13201;51.148;13.738;2022-08-01T12:07:37;3.95;;;1.10;;
25249;SDS011;13201;51.148;13.738;2022-08-01T12:10:08;0.88;;;0.75;;
25249;SDS011;13201;51.148;13.738;2022-08-01T12:12:35;2.20;;;0.80;;
25249;SDS011;13201;51.148;13.738;2022-08-01T12:15:07;3.22;;;0.73;;
25249;SDS011;13201;51.148;13.738;2022-08-01T12:17:41;2.50;;;1.05;;
25249;SDS011;13201;51.148;13.738;2022-08-01T12:20:12;1.35;;;1.00;;
25249;SDS011;13201;51.148;13.738;2022-08-01T12:22:39;1.50;;;0.90;;
25249;SDS011;13201;51.148;13.738;2022-08-01T12:29:58;1.47;;;0.70;;
25249;SDS011;13201;51.148;13.738;2022-08-01T12:32:26;2.00;;;0.60;;
25249;SDS011;13201;51.148;13.738;2022-08-01T12:34:57;2.40;;;0.93;;
25249;SDS011;13201;51.148;13.738;2022-08-01T12:37:28;0.75;;;0.70;;
25249;SDS011;13201;51.148;13.738;2022-08-01T12:39:54;2.23;;;1.13;;
25249;SDS011;13201;51.148;13.738;2022-08-01T12:42:21;2.95;;;0.80;;
25249;SDS011;13201;51.148;13.738;2022-08-01T12:44:51;4.47;;;1.00;;
25249;SDS011;13201;51.148;13.738;2022-08-01T12:47:18;1.73;;;0.82;;
25249;SDS011;13201;51.148;13.738;2022-08-01T12:49:45;1.15;;;1.05;;
25249;SDS011;13201;51.148;13.738;2022-08-01T12:57:43;0.98;;;0.70;;
25249;SDS011;13201;51.148;13.738;2022-08-01T13:00:24;2.03;;;0.88;;
25249;SDS011;13201;51.148;13.738;2022-08-01T13:05:49;3.50;;;0.75;;
25249;SDS011;13201;51.148;13.738;2022-08-01T13:08:38;0.88;;;0.52;;
25249;SDS011;13201;51.148;13.738;2022-08-01T13:11:07;1.67;;;0.60;;
25249;SDS011;13201;51.148;13.738;2022-08-01T13:13:41;2.03;;;0.70;;
25249;SDS011;13201;51.148;13.738;2022-08-01T13:16:14;1.90;;;0.60;;
25249;SDS011;13201;51.148;13.738;2022-08-01T13:18:51;0.90;;;0.50;;
25249;SDS011;13201;51.148;13.738;2022-08-01T13:21:18;0.60;;;0.60;;
25249;SDS011;13201;51.148;13.738;2022-08-01T13:24:06;3.70;;;0.68;;
25249;SDS011;13201;51.148;13.738;2022-08-01T13:26:47;2.95;;;1.05;;
25249;SDS011;13201;51.148;13.738;2022-08-01T13:29:16;1.25;;;0.80;;
25249;SDS011;13201;51.148;13.738;2022-08-01T13:31:43;3.33;;;0.98;;
25249;SDS011;13201;51.148;13.738;2022-08-01T13:34:10;5.20;;;0.60;;
25249;SDS011;13201;51.148;13.738;2022-08-01T13:36:36;0.85;;;0.63;;
25249;SDS011;13201;51.148;13.738;2022-08-01T13:39:03;2.58;;;0.70;;
25249;SDS011;13201;51.148;13.738;2022-08-01T13:41:48;7.13;;;1.13;;
25249;SDS011;13201;51.148;13.738;2022-08-01T13:44:14;2.03;;;0.80;;
25249;SDS011;13201;51.148;13.738;2022-08-01T13:46:41;0.90;;;0.83;;
25249;SDS011;13201;51.148;13.738;2022-08-01T13:49:08;0.70;;;0.70;;
25249;SDS011;13201;51.148;13.738;2022-08-01T13:51:34;1.67;;;0.70;;
25249;SDS011;13201;51.148;13.738;2022-08-01T13:54:00;2.70;;;0.60;;
25249;SDS011;13201;51.148;13.738;2022-08-01T13:56:26;1.20;;;0.87;;
25249;SDS011;13201;51.148;13.738;2022-08-01T13:58:55;3.10;;;0.90;;
25249;SDS011;13201;51.148;13.738;2022-08-01T14:01:21;1.35;;;0.90;;
25249;SDS011;13201;51.148;13.738;2022-08-01T14:03:47;3.47;;;0.98;;
25249;SDS011;13201;51.148;13.738;2022-08-01T14:06:13;3.73;;;0.90;;
25249;SDS011;13201;51.148;13.738;2022-08-01T14:08:41;1.83;;;0.73;;
25249;SDS011;13201;51.148;13.738;2022-08-01T14:11:07;1.10;;;1.00;;
25249;SDS011;13201;51.148;13.738;2022-08-01T14:13:32;0.93;;;0.80;;
25249;SDS011;13201;51.148;13.738;2022-08-01T14:15:59;3.10;;;0.80;;
25249;SDS011;13201;51.148;13.738;2022-08-01T14:18:25;2.90;;;0.80;;
25249;SDS011;13201;51.148;13.738;2022-08-01T14:20:51;2.33;;;1.00;;
25249;SDS011;13201;51.148;13.738;2022-08-01T14:23:17;2.85;;;1.00;;
25249;SDS011;13201;51.148;13.738;2022-08-01T14:25:43;1.57;;;0.90;;
25249;SDS011;13201;51.148;13.738;2022-08-01T14:28:09;1.13;;;0.90;;
25249;SDS011;13201;51.148;13.738;2022-08-01T14:30:35;1.00;;;1.00;;
25249;SDS011;13201;51.148;13.738;2022-08-01T14:33:01;1.17;;;1.07;;
25249;SDS011;13201;51.148;13.738;2022-08-01T14:35:27;1.93;;;1.10;;
25249;SDS011;13201;51.148;13.738;2022-08-01T14:37:52;2.53;;;0.90;;
25249;SDS011;13201;51.148;13.738;2022-08-01T14:40:18;0.90;;;0.90;;
25249;SDS011;13201;51.148;13.738;2022-08-01T14:42:44;1.00;;;0.90;;
25249;SDS011;13201;51.148;13.738;2022-08-01T14:45:10;2.80;;;1.10;;
25249;SDS011;13201;51.148;13.738;2022-08-01T14:47:40;3.53;;;1.00;;
25249;SDS011;13201;51.148;13.738;2022-08-01T14:50:08;1.52;;;0.80;;
25249;SDS011;13201;51.148;13.738;2022-08-01T14:52:35;3.30;;;0.70;;
25249;SDS011;13201;51.148;13.738;2022-08-01T14:55:02;0.70;;;0.70;;
25249;SDS011;13201;51.148;13.738;2022-08-01T15:02:20;1.23;;;0.93;;
25249;SDS011;13201;51.148;13.738;2022-08-01T15:04:46;4.13;;;0.90;;
25249;SDS011;13201;51.148;13.738;2022-08-01T15:07:12;0.75;;;0.60;;
25249;SDS011;13201;51.148;13.738;2022-08-01T15:09:38;3.38;;;0.73;;
25249;SDS011;13201;51.148;13.738;2022-08-01T15:12:04;3.37;;;0.70;;
25249;SDS011;13201;51.148;13.738;2022-08-01T15:14:30;2.53;;;0.73;;
25249;SDS011;13201;51.148;13.738;2022-08-01T15:17:15;4.47;;;0.80;;
25249;SDS011;13201;51.148;13.738;2022-08-01T15:19:42;0.95;;;0.77;;
25249;SDS011;13201;51.148;13.738;2022-08-01T15:22:08;6.40;;;0.90;;
25249;SDS011;13201;51.148;13.738;2022-08-01T15:24:34;5.72;;;0.98;;
25249;SDS011;13201;51.148;13.738;2022-08-01T15:26:59;2.17;;;0.93;;
25249;SDS011;13201;51.148;13.738;2022-08-01T15:29:25;5.60;;;1.00;;
25249;SDS011;13201;51.148;13.738;2022-08-01T15:31:51;0.60;;;0.60;;
25249;SDS011;13201;51.148;13.738;2022-08-01T15:34:17;2.30;;;0.80;;
25249;SDS011;13201;51.148;13.738;2022-08-01T15:36:42;5.63;;;0.80;;
25249;SDS011;13201;51.148;13.738;2022-08-01T15:39:09;2.13;;;0.87;;
25249;SDS011;13201;51.148;13.738;2022-08-01T15:41:35;0.70;;;0.70;;
25249;SDS011;13201;51.148;13.738;2022-08-01T15:44:00;1.00;;;0.90;;
25249;SDS011;13201;51.148;13.738;2022-08-01T15:46:26;1.47;;;0.70;;
25249;SDS011;13201;51.148;13.738;2022-08-01T15:48:52;2.37;;;0.77;;
25249;SDS011;13201;51.148;13.738;2022-08-01T15:51:17;1.90;;;0.80;;
25249;SDS011;13201;51.148;13.738;2022-08-01T15:53:43;0.80;;;0.80;;
25249;SDS011;13201;51.148;13.738;2022-08-01T15:56:11;0.70;;;0.70;;
25249;SDS011;13201;51.148;13.738;2022-08-01T15:58:37;4.38;;;0.90;;
25249;SDS011;13201;51.148;13.738;2022-08-01T16:01:02;1.47;;;1.07;;
25249;SDS011;13201;51.148;13.738;2022-08-01T16:03:28;2.47;;;0.80;;